Terminal Aerodrome Forecast
Issued by NWS Sioux Falls, SD

Home | Current Version | Previous Version | Text Only | Print | Product List | Glossary Off
Versions: 1 2 3 4 5 6 7 8 9 10 11 12 13 14 15 16 17 18 19 20 21 22 23 24 25 26 27 28 29 30 31 32 33 34 35 36 37 38

000
FTUS43 KFSD 231122
TAFSUX
TAF
KSUX 231122Z 2312/2412 33010KT 2SM -SN OVC006
      TEMPO 2312/2315 1SM -SN OVC003
     FM231600 33015G22KT 5SM -SN OVC005
     FM231900 33020G28KT P6SM OVC008
     FM240100 33014G20KT P6SM OVC008
     FM240600 33013KT P6SM OVC008=

USA.gov is the U.S. government's official web portal to all federal, state and local government web resources and services.